Terminal Aerodrome Forecast
Issued by NWS Mt. Holly, NJ

Current Version | Previous Version | Text Only | Print | Product List | Glossary On
Versions: 1 2 3 4 5 6 7 8 9 10 11 12 13 14 15 16 17 18
000
FTUS41 KPHI 281200 CCA
TAFRDG
TAF COR
KRDG 281242Z 2812/2912 26006KT P6SM BKN018 OVC035
      TEMPO 2813/2815 SCT018 BKN035
     FM281500 28014G24KT P6SM BKN035
     FM290000 30010KT P6SM SCT200
     FM290400 29003KT P6SM SCT200=

USA.gov is the U.S. government's official web portal to all federal, state and local government web resources and services.